CheckWX is a tool to help pilots better visualize weather data.  It is not intended as a substitute for an official pre-flight weather briefing.

03:27:08 UTC

SLCB TAF
Jorge Wilsterman International Airport
Cochabamba, Bolivia
TAF SLCB 152200Z 1600/1624 12012KT 9999 SCT030 FEW033CB BKN070 TX27/ 1619Z TN12/1611Z PROB40 TEMPO 1603/1605 8000 TSRA BECMG 1606/1608 00000KT FEW027 BKN070 BECMG 1616/1618 28012KT FEW036 FEW040CB TEMPO 1619/1621 VCTS

Dec-16@
00:00 UTC

Dec-16 @ 00:00 UTC

Dec-16@
06:00 UTC

Dec-16 @ 06:00 UTC

TAF SLCB 152200Z 1600/1624 12012KT 9999 SCT030 FEW033CB BKN070 TX27/ 1619Z TN12/1611Z
Wind
  • 120° at 12 KTS
Cloud Levels
  • Scattered at 3,000' AGL
  • Few at 3,300' AGL
  • Broken at 7,000' AGL

Dec-16@
03:00 UTC

Dec-16 @ 03:00 UTC

Dec-16@
05:00 UTC

Dec-16 @ 05:00 UTC

PROB40 TEMPO 1603/1605 8000 TSRA

Temporary - 40% Likelihood

Temporary - 40% Likelihood during this time.

Conditions
Thunderstorm, Rain

Dec-16@
06:00 UTC

Dec-16 @ 06:00 UTC

Dec-16@
16:00 UTC

Dec-16 @ 16:00 UTC

BECMG 1606/1608 00000KT FEW027 BKN070

Becoming

Becoming Conditions expected by Mon, Dec 16, 2019 @ 08:00 UTC

Cloud Levels
  • Few at 2,700' AGL
  • Broken at 7,000' AGL

Dec-16@
16:00 UTC

Dec-16 @ 16:00 UTC

Dec-17@
00:00 UTC

Dec-17 @ 00:00 UTC

BECMG 1616/1618 28012KT FEW036 FEW040CB

Becoming

Becoming Conditions expected by Mon, Dec 16, 2019 @ 18:00 UTC

Wind
  • 280° at 12 KTS
Cloud Levels
  • Few at 3,600' AGL
  • Few at 4,000' AGL

Dec-16@
19:00 UTC

Dec-16 @ 19:00 UTC

Dec-16@
21:00 UTC

Dec-16 @ 21:00 UTC

TEMPO 1619/1621 VCTS

Temporary

Temporary Changes expected for less than half the time period

Conditions
Area Thunderstorm